sensor_id;sensor_type;location;lat;lon;timestamp;pressure;altitude;pressure_sealevel;temperature;humidity
8160;BME280;27404;52.398;9.646;2023-08-06T00:01:49;100116.50;;;13.46;100.00
8160;BME280;27404;52.398;9.646;2023-08-06T00:04:15;100113.22;;;13.44;100.00
8160;BME280;27404;52.398;9.646;2023-08-06T00:06:40;100110.50;;;13.55;100.00
8160;BME280;27404;52.398;9.646;2023-08-06T00:09:06;100116.25;;;13.43;100.00
8160;BME280;27404;52.398;9.646;2023-08-06T00:11:31;100111.31;;;13.45;100.00
8160;BME280;27404;52.398;9.646;2023-08-06T00:13:57;100109.91;;;13.42;100.00
8160;BME280;27404;52.398;9.646;2023-08-06T00:16:22;100103.63;;;13.47;100.00
8160;BME280;27404;52.398;9.646;2023-08-06T00:18:48;100107.75;;;13.50;100.00
8160;BME280;27404;52.398;9.646;2023-08-06T00:21:13;100109.38;;;13.51;100.00
8160;BME280;27404;52.398;9.646;2023-08-06T00:23:40;100102.56;;;13.53;100.00
8160;BME280;27404;52.398;9.646;2023-08-06T00:26:05;100099.50;;;13.50;100.00
8160;BME280;27404;52.398;9.646;2023-08-06T00:28:31;100101.16;;;13.51;100.00
8160;BME280;27404;52.398;9.646;2023-08-06T00:30:56;100099.78;;;13.48;100.00
8160;BME280;27404;52.398;9.646;2023-08-06T00:33:25;100100.59;;;13.48;100.00
8160;BME280;27404;52.398;9.646;2023-08-06T00:35:51;100091.84;;;13.57;100.00
8160;BME280;27404;52.398;9.646;2023-08-06T00:38:16;100091.56;;;13.53;100.00
8160;BME280;27404;52.398;9.646;2023-08-06T00:40:42;100083.31;;;13.48;100.00
8160;BME280;27404;52.398;9.646;2023-08-06T00:43:07;100077.25;;;13.46;100.00
8160;BME280;27404;52.398;9.646;2023-08-06T00:45:35;100081.09;;;13.45;100.00
8160;BME280;27404;52.398;9.646;2023-08-06T00:48:03;100070.13;;;13.45;100.00
8160;BME280;27404;52.398;9.646;2023-08-06T00:50:30;100068.19;;;13.45;100.00
8160;BME280;27404;52.398;9.646;2023-08-06T00:52:56;100058.53;;;13.38;100.00
8160;BME280;27404;52.398;9.646;2023-08-06T00:55:21;100052.25;;;13.42;100.00
8160;BME280;27404;52.398;9.646;2023-08-06T00:57:47;100049.81;;;13.46;100.00
8160;BME280;27404;52.398;9.646;2023-08-06T01:00:13;100040.47;;;13.47;100.00
8160;BME280;27404;52.398;9.646;2023-08-06T01:02:38;100044.03;;;13.47;100.00
8160;BME280;27404;52.398;9.646;2023-08-06T01:05:04;100030.59;;;13.51;100.00
8160;BME280;27404;52.398;9.646;2023-08-06T01:15:54;100011.56;;;13.34;100.00
8160;BME280;27404;52.398;9.646;2023-08-06T01:18:23;100019.22;;;13.32;100.00
8160;BME280;27404;52.398;9.646;2023-08-06T01:20:48;100014.31;;;13.34;100.00
8160;BME280;27404;52.398;9.646;2023-08-06T01:23:15;100014.31;;;13.34;100.00
8160;BME280;27404;52.398;9.646;2023-08-06T01:31:13;100011.31;;;13.36;100.00
8160;BME280;27404;52.398;9.646;2023-08-06T01:33:43;100008.56;;;13.36;100.00
8160;BME280;27404;52.398;9.646;2023-08-06T01:36:11;100012.94;;;13.37;100.00
8160;BME280;27404;52.398;9.646;2023-08-06T01:38:36;100015.41;;;13.38;100.00
8160;BME280;27404;52.398;9.646;2023-08-06T01:41:02;100005.53;;;13.37;100.00
8160;BME280;27404;52.398;9.646;2023-08-06T01:43:27;100004.16;;;13.35;100.00
8160;BME280;27404;52.398;9.646;2023-08-06T01:45:53;100000.88;;;13.38;100.00
8160;BME280;27404;52.398;9.646;2023-08-06T01:48:18;100007.72;;;13.35;100.00
8160;BME280;27404;52.398;9.646;2023-08-06T01:50:43;99994.53;;;13.37;100.00
8160;BME280;27404;52.398;9.646;2023-08-06T01:53:09;99997.59;;;13.41;100.00
8160;BME280;27404;52.398;9.646;2023-08-06T01:55:34;99993.25;;;13.45;100.00
8160;BME280;27404;52.398;9.646;2023-08-06T01:58:00;99986.09;;;13.44;100.00
8160;BME280;27404;52.398;9.646;2023-08-06T02:00:25;99982.22;;;13.40;100.00
8160;BME280;27404;52.398;9.646;2023-08-06T02:02:53;99975.06;;;13.39;100.00
8160;BME280;27404;52.398;9.646;2023-08-06T02:05:18;99979.16;;;13.36;100.00
8160;BME280;27404;52.398;9.646;2023-08-06T02:07:43;99977.81;;;13.33;100.00
8160;BME280;27404;52.398;9.646;2023-08-06T02:10:09;99976.41;;;13.36;100.00
8160;BME280;27404;52.398;9.646;2023-08-06T02:12:34;99981.13;;;13.41;100.00
8160;BME280;27404;52.398;9.646;2023-08-06T02:15:00;99974.22;;;13.38;100.00
8160;BME280;27404;52.398;9.646;2023-08-06T02:17:25;99974.50;;;13.31;100.00
8160;BME280;27404;52.398;9.646;2023-08-06T02:19:51;99975.59;;;13.30;100.00
8160;BME280;27404;52.398;9.646;2023-08-06T02:22:16;99986.00;;;13.23;100.00
8160;BME280;27404;52.398;9.646;2023-08-06T02:24:41;99977.72;;;13.13;100.00
8160;BME280;27404;52.398;9.646;2023-08-06T02:27:07;99974.41;;;13.06;100.00
8160;BME280;27404;52.398;9.646;2023-08-06T02:29:32;99985.94;;;13.08;100.00
8160;BME280;27404;52.398;9.646;2023-08-06T02:31:58;99981.84;;;13.05;100.00
8160;BME280;27404;52.398;9.646;2023-08-06T02:34:24;99982.38;;;13.02;100.00
8160;BME280;27404;52.398;9.646;2023-08-06T02:36:50;99976.56;;;12.98;100.00
8160;BME280;27404;52.398;9.646;2023-08-06T02:39:15;99976.28;;;12.95;100.00
8160;BME280;27404;52.398;9.646;2023-08-06T02:41:42;99967.22;;;12.89;100.00
8160;BME280;27404;52.398;9.646;2023-08-06T02:44:07;99969.13;;;12.88;100.00
8160;BME280;27404;52.398;9.646;2023-08-06T02:46:32;99955.72;;;12.97;100.00
8160;BME280;27404;52.398;9.646;2023-08-06T02:48:58;99955.19;;;13.00;100.00
8160;BME280;27404;52.398;9.646;2023-08-06T02:51:23;99965.06;;;12.91;100.00
8160;BME280;27404;52.398;9.646;2023-08-06T02:53:49;99956.56;;;12.98;100.00
8160;BME280;27404;52.398;9.646;2023-08-06T02:56:14;99946.97;;;13.06;100.00
8160;BME280;27404;52.398;9.646;2023-08-06T02:58:40;99947.84;;;13.11;100.00
8160;BME280;27404;52.398;9.646;2023-08-06T03:01:06;99934.63;;;13.03;100.00
8160;BME280;27404;52.398;9.646;2023-08-06T03:03:32;99931.34;;;13.01;100.00
8160;BME280;27404;52.398;9.646;2023-08-06T03:05:58;99924.97;;;12.95;100.00
8160;BME280;27404;52.398;9.646;2023-08-06T03:08:24;99925.53;;;12.87;100.00
8160;BME280;27404;52.398;9.646;2023-08-06T03:10:50;99919.50;;;12.85;100.00
8160;BME280;27404;52.398;9.646;2023-08-06T03:13:19;99916.72;;;12.80;100.00
8160;BME280;27404;52.398;9.646;2023-08-06T03:15:55;99904.41;;;12.93;100.00
8160;BME280;27404;52.398;9.646;2023-08-06T03:18:21;99903.31;;;12.88;100.00
8160;BME280;27404;52.398;9.646;2023-08-06T03:20:47;99904.41;;;12.87;100.00
8160;BME280;27404;52.398;9.646;2023-08-06T03:23:12;99897.00;;;12.83;100.00
8160;BME280;27404;52.398;9.646;2023-08-06T03:25:38;99899.72;;;12.83;100.00
8160;BME280;27404;52.398;9.646;2023-08-06T03:28:03;99899.41;;;12.74;100.00
8160;BME280;27404;52.398;9.646;2023-08-06T03:30:29;99898.63;;;12.79;100.00
8160;BME280;27404;52.398;9.646;2023-08-06T03:32:54;99890.09;;;12.80;100.00
8160;BME280;27404;52.398;9.646;2023-08-06T03:35:20;99887.63;;;12.73;100.00
8160;BME280;27404;52.398;9.646;2023-08-06T03:37:45;99882.38;;;12.67;100.00
8160;BME280;27404;52.398;9.646;2023-08-06T03:40:11;99888.94;;;12.66;100.00
8160;BME280;27404;52.398;9.646;2023-08-06T03:42:36;99883.78;;;12.69;100.00
8160;BME280;27404;52.398;9.646;2023-08-06T03:45:02;99887.63;;;12.73;100.00
8160;BME280;27404;52.398;9.646;2023-08-06T03:47:28;99882.66;;;12.65;100.00
8160;BME280;27404;52.398;9.646;2023-08-06T03:49:53;99885.94;;;12.62;100.00
8160;BME280;27404;52.398;9.646;2023-08-06T03:52:19;99882.06;;;12.58;100.00
8160;BME280;27404;52.398;9.646;2023-08-06T03:54:44;99884.00;;;12.57;100.00
8160;BME280;27404;52.398;9.646;2023-08-06T03:57:10;99883.44;;;12.61;100.00
8160;BME280;27404;52.398;9.646;2023-08-06T03:59:35;99885.09;;;12.62;100.00
8160;BME280;27404;52.398;9.646;2023-08-06T04:02:01;99876.03;;;12.56;100.00
8160;BME280;27404;52.398;9.646;2023-08-06T04:04:27;99863.47;;;12.65;100.00
8160;BME280;27404;52.398;9.646;2023-08-06T04:06:52;99868.41;;;12.68;100.00
8160;BME280;27404;52.398;9.646;2023-08-06T04:09:17;99864.03;;;12.72;100.00
8160;BME280;27404;52.398;9.646;2023-08-06T04:11:43;99855.50;;;12.69;100.00
8160;BME280;27404;52.398;9.646;2023-08-06T04:14:08;99862.13;;;12.83;100.00
8160;BME280;27404;52.398;9.646;2023-08-06T04:16:34;99857.22;;;12.91;100.00
8160;BME280;27404;52.398;9.646;2023-08-06T04:18:59;99851.19;;;12.94;100.00
8160;BME280;27404;52.398;9.646;2023-08-06T04:21:24;99865.47;;;12.91;100.00
8160;BME280;27404;52.398;9.646;2023-08-06T04:23:50;99861.34;;;12.98;100.00
8160;BME280;27404;52.398;9.646;2023-08-06T04:26:15;99863.81;;;12.89;100.00
8160;BME280;27404;52.398;9.646;2023-08-06T04:28:41;99874.53;;;12.91;100.00
8160;BME280;27404;52.398;9.646;2023-08-06T04:31:06;99876.72;;;12.89;100.00
8160;BME280;27404;52.398;9.646;2023-08-06T04:33:32;99874.78;;;12.89;100.00
8160;BME280;27404;52.398;9.646;2023-08-06T04:35:57;99880.25;;;12.89;100.00
8160;BME280;27404;52.398;9.646;2023-08-06T04:38:24;99880.00;;;12.91;100.00
8160;BME280;27404;52.398;9.646;2023-08-06T04:40:50;99874.53;;;12.91;100.00
8160;BME280;27404;52.398;9.646;2023-08-06T04:43:15;99878.34;;;12.95;100.00
8160;BME280;27404;52.398;9.646;2023-08-06T04:45:53;99880.56;;;13.03;100.00
8160;BME280;27404;52.398;9.646;2023-08-06T04:48:19;99874.81;;;13.05;100.00
8160;BME280;27404;52.398;9.646;2023-08-06T04:50:49;99872.88;;;13.00;100.00
8160;BME280;27404;52.398;9.646;2023-08-06T04:53:15;99875.09;;;13.09;100.00
8160;BME280;27404;52.398;9.646;2023-08-06T04:55:41;99878.16;;;13.17;100.00
8160;BME280;27404;52.398;9.646;2023-08-06T04:58:09;99874.84;;;13.31;100.00
8160;BME280;27404;52.398;9.646;2023-08-06T05:00:34;99876.25;;;13.39;100.00
8160;BME280;27404;52.398;9.646;2023-08-06T05:03:00;99884.53;;;13.49;100.00
8160;BME280;27404;52.398;9.646;2023-08-06T05:05:27;99877.38;;;13.63;100.00
8160;BME280;27404;52.398;9.646;2023-08-06T05:07:55;99888.63;;;13.62;100.00
8160;BME280;27404;52.398;9.646;2023-08-06T05:10:21;99879.28;;;13.58;100.00
8160;BME280;27404;52.398;9.646;2023-08-06T05:12:49;99878.47;;;13.62;100.00
8160;BME280;27404;52.398;9.646;2023-08-06T05:15:14;99883.94;;;13.83;100.00
8160;BME280;27404;52.398;9.646;2023-08-06T05:17:40;99872.66;;;14.00;100.00
8160;BME280;27404;52.398;9.646;2023-08-06T05:20:05;99882.28;;;13.98;100.00
8160;BME280;27404;52.398;9.646;2023-08-06T05:22:31;99875.13;;;14.07;100.00
8160;BME280;27404;52.398;9.646;2023-08-06T05:24:56;99877.84;;;14.23;100.00
8160;BME280;27404;52.398;9.646;2023-08-06T05:27:22;99881.91;;;14.46;100.00
8160;BME280;27404;52.398;9.646;2023-08-06T05:29:47;99888.44;;;14.60;100.00
8160;BME280;27404;52.398;9.646;2023-08-06T05:32:13;99888.97;;;14.73;100.00
8160;BME280;27404;52.398;9.646;2023-08-06T05:34:38;99882.63;;;14.77;100.00
8160;BME280;27404;52.398;9.646;2023-08-06T05:37:04;99877.09;;;14.83;100.00
8160;BME280;27404;52.398;9.646;2023-08-06T05:39:30;99877.03;;;14.93;100.00
8160;BME280;27404;52.398;9.646;2023-08-06T05:41:55;99872.31;;;15.04;100.00
8160;BME280;27404;52.398;9.646;2023-08-06T05:44:21;99873.56;;;15.22;100.00
8160;BME280;27404;52.398;9.646;2023-08-06T05:46:47;99869.88;;;15.37;100.00
8160;BME280;27404;52.398;9.646;2023-08-06T05:49:12;99867.75;;;15.58;100.00
8160;BME280;27404;52.398;9.646;2023-08-06T05:51:39;99865.94;;;15.78;100.00
8160;BME280;27404;52.398;9.646;2023-08-06T05:54:04;99864.38;;;16.01;100.00
8160;BME280;27404;52.398;9.646;2023-08-06T05:56:30;99861.06;;;16.53;100.00
8160;BME280;27404;52.398;9.646;2023-08-06T05:58:55;99857.91;;;19.14;100.00
8160;BME280;27404;52.398;9.646;2023-08-06T06:01:21;99836.53;;;21.96;100.00
8160;BME280;27404;52.398;9.646;2023-08-06T06:03:46;99834.97;;;24.19;100.00
8160;BME280;27404;52.398;9.646;2023-08-06T06:06:12;99831.88;;;25.68;100.00
8160;BME280;27404;52.398;9.646;2023-08-06T06:08:37;99834.16;;;26.59;100.00
8160;BME280;27404;52.398;9.646;2023-08-06T06:11:02;99840.81;;;26.70;100.00
8160;BME280;27404;52.398;9.646;2023-08-06T06:13:28;99841.03;;;25.53;100.00
8160;BME280;27404;52.398;9.646;2023-08-06T06:15:56;99836.44;;;25.45;100.00
8160;BME280;27404;52.398;9.646;2023-08-06T06:18:22;99831.81;;;25.81;100.00
8160;BME280;27404;52.398;9.646;2023-08-06T06:20:48;99827.34;;;26.40;99.18
8160;BME280;27404;52.398;9.646;2023-08-06T06:23:13;99827.09;;;27.01;95.72
8160;BME280;27404;52.398;9.646;2023-08-06T06:25:49;99831.94;;;28.29;87.52
8160;BME280;27404;52.398;9.646;2023-08-06T06:28:18;99832.50;;;28.92;77.56
8160;BME280;27404;52.398;9.646;2023-08-06T06:30:44;99831.97;;;29.85;73.56
8160;BME280;27404;52.398;9.646;2023-08-06T06:33:09;99830.72;;;30.77;68.66
8160;BME280;27404;52.398;9.646;2023-08-06T06:35:35;99830.34;;;31.78;63.46
8160;BME280;27404;52.398;9.646;2023-08-06T06:38:00;99824.31;;;32.30;60.21
8160;BME280;27404;52.398;9.646;2023-08-06T06:40:26;99830.75;;;32.56;61.02
8160;BME280;27404;52.398;9.646;2023-08-06T06:42:51;99833.91;;;32.98;59.53
8160;BME280;27404;52.398;9.646;2023-08-06T06:45:17;99836.38;;;33.74;55.96
8160;BME280;27404;52.398;9.646;2023-08-06T06:47:43;99828.94;;;34.02;53.87
8160;BME280;27404;52.398;9.646;2023-08-06T06:50:08;99837.81;;;34.04;51.54
8160;BME280;27404;52.398;9.646;2023-08-06T06:52:34;99836.16;;;34.10;51.64
8160;BME280;27404;52.398;9.646;2023-08-06T06:54:59;99824.28;;;33.66;50.30
8160;BME280;27404;52.398;9.646;2023-08-06T06:57:25;99825.88;;;32.67;52.74
8160;BME280;27404;52.398;9.646;2023-08-06T06:59:50;99822.28;;;32.12;54.90
8160;BME280;27404;52.398;9.646;2023-08-06T07:02:16;99815.00;;;31.86;56.70
8160;BME280;27404;52.398;9.646;2023-08-06T07:04:41;99820.25;;;32.13;56.40
8160;BME280;27404;52.398;9.646;2023-08-06T07:07:06;99819.88;;;32.32;52.24
8160;BME280;27404;52.398;9.646;2023-08-06T07:09:32;99813.38;;;31.92;53.66
8160;BME280;27404;52.398;9.646;2023-08-06T07:11:57;99814.19;;;31.85;57.10
8160;BME280;27404;52.398;9.646;2023-08-06T07:14:25;99812.09;;;31.53;57.62
8160;BME280;27404;52.398;9.646;2023-08-06T07:16:51;99809.66;;;31.44;53.13
8160;BME280;27404;52.398;9.646;2023-08-06T07:19:16;99804.59;;;29.82;62.11
8160;BME280;27404;52.398;9.646;2023-08-06T07:21:42;99802.72;;;29.56;64.23
8160;BME280;27404;52.398;9.646;2023-08-06T07:24:07;99807.34;;;29.37;63.00
8160;BME280;27404;52.398;9.646;2023-08-06T07:26:32;99804.56;;;28.76;64.26
8160;BME280;27404;52.398;9.646;2023-08-06T07:28:58;99800.66;;;28.31;66.73
8160;BME280;27404;52.398;9.646;2023-08-06T07:31:23;99793.44;;;27.20;72.23
8160;BME280;27404;52.398;9.646;2023-08-06T07:33:49;99788.16;;;25.48;90.59
8160;BME280;27404;52.398;9.646;2023-08-06T07:36:14;99790.50;;;23.89;93.00
8160;BME280;27404;52.398;9.646;2023-08-06T07:38:41;99787.09;;;22.83;100.00
8160;BME280;27404;52.398;9.646;2023-08-06T07:41:06;99770.66;;;22.39;100.00
8160;BME280;27404;52.398;9.646;2023-08-06T07:43:32;99773.44;;;22.09;100.00
8160;BME280;27404;52.398;9.646;2023-08-06T07:45:58;99779.81;;;22.48;100.00
8160;BME280;27404;52.398;9.646;2023-08-06T07:48:25;99770.84;;;22.63;100.00
8160;BME280;27404;52.398;9.646;2023-08-06T07:50:52;99780.84;;;23.07;100.00
8160;BME280;27404;52.398;9.646;2023-08-06T07:53:22;99780.69;;;23.25;100.00
8160;BME280;27404;52.398;9.646;2023-08-06T07:55:51;99786.81;;;23.51;100.00
8160;BME280;27404;52.398;9.646;2023-08-06T07:58:17;99792.09;;;23.32;100.00
8160;BME280;27404;52.398;9.646;2023-08-06T08:00:43;99792.00;;;23.07;100.00
8160;BME280;27404;52.398;9.646;2023-08-06T08:03:14;99783.09;;;22.71;100.00
8160;BME280;27404;52.398;9.646;2023-08-06T08:05:40;99789.53;;;22.63;100.00
8160;BME280;27404;52.398;9.646;2023-08-06T08:08:06;99781.19;;;22.84;100.00
8160;BME280;27404;52.398;9.646;2023-08-06T08:10:33;99775.81;;;22.79;100.00
8160;BME280;27404;52.398;9.646;2023-08-06T08:12:58;99774.38;;;22.52;100.00
8160;BME280;27404;52.398;9.646;2023-08-06T08:15:28;99770.69;;;22.30;100.00
8160;BME280;27404;52.398;9.646;2023-08-06T08:17:54;99773.97;;;22.32;100.00
8160;BME280;27404;52.398;9.646;2023-08-06T08:20:20;99774.97;;;22.27;100.00
8160;BME280;27404;52.398;9.646;2023-08-06T08:22:45;99767.56;;;22.01;100.00
8160;BME280;27404;52.398;9.646;2023-08-06T08:25:11;99772.09;;;21.85;100.00
8160;BME280;27404;52.398;9.646;2023-08-06T08:27:36;99764.56;;;21.11;100.00
8160;BME280;27404;52.398;9.646;2023-08-06T08:30:02;99760.78;;;20.98;100.00
8160;BME280;27404;52.398;9.646;2023-08-06T08:32:27;99772.56;;;20.95;100.00
8160;BME280;27404;52.398;9.646;2023-08-06T08:34:53;99773.38;;;21.05;100.00
8160;BME280;27404;52.398;9.646;2023-08-06T08:37:18;99759.81;;;20.85;100.00
8160;BME280;27404;52.398;9.646;2023-08-06T08:39:44;99762.91;;;21.01;100.00
8160;BME280;27404;52.398;9.646;2023-08-06T08:42:10;99765.50;;;21.24;100.00
8160;BME280;27404;52.398;9.646;2023-08-06T08:44:36;99768.28;;;20.71;100.00
8160;BME280;27404;52.398;9.646;2023-08-06T08:47:08;99766.66;;;20.88;100.00
8160;BME280;27404;52.398;9.646;2023-08-06T08:49:35;99768.31;;;20.98;100.00
8160;BME280;27404;52.398;9.646;2023-08-06T08:52:02;99760.47;;;21.00;100.00
8160;BME280;27404;52.398;9.646;2023-08-06T08:54:28;99765.13;;;21.52;100.00
8160;BME280;27404;52.398;9.646;2023-08-06T08:56:56;99773.66;;;21.38;100.00
8160;BME280;27404;52.398;9.646;2023-08-06T08:59:22;99768.91;;;21.39;100.00
8160;BME280;27404;52.398;9.646;2023-08-06T09:01:48;99762.97;;;21.67;100.00
8160;BME280;27404;52.398;9.646;2023-08-06T09:04:18;99758.69;;;21.78;100.00
8160;BME280;27404;52.398;9.646;2023-08-06T09:06:50;99758.59;;;22.26;100.00
8160;BME280;27404;52.398;9.646;2023-08-06T09:09:26;99757.75;;;22.64;100.00
8160;BME280;27404;52.398;9.646;2023-08-06T09:11:52;99753.44;;;22.88;100.00
8160;BME280;27404;52.398;9.646;2023-08-06T09:14:20;99756.22;;;22.88;100.00
8160;BME280;27404;52.398;9.646;2023-08-06T09:16:46;99751.13;;;22.90;100.00
8160;BME280;27404;52.398;9.646;2023-08-06T09:19:13;99754.75;;;22.48;100.00
8160;BME280;27404;52.398;9.646;2023-08-06T09:21:41;99748.56;;;22.63;100.00
8160;BME280;27404;52.398;9.646;2023-08-06T09:24:11;99748.00;;;22.19;100.00
8160;BME280;27404;52.398;9.646;2023-08-06T09:26:41;99750.41;;;21.99;100.00
8160;BME280;27404;52.398;9.646;2023-08-06T09:29:08;99754.44;;;22.11;100.00
8160;BME280;27404;52.398;9.646;2023-08-06T09:31:50;99749.09;;;22.27;100.00
8160;BME280;27404;52.398;9.646;2023-08-06T09:34:20;99746.66;;;22.25;100.00
8160;BME280;27404;52.398;9.646;2023-08-06T09:36:53;99737.81;;;22.53;100.00
8160;BME280;27404;52.398;9.646;2023-08-06T09:39:21;99742.94;;;22.42;100.00
8160;BME280;27404;52.398;9.646;2023-08-06T09:41:47;99750.13;;;22.52;100.00
8160;BME280;27404;52.398;9.646;2023-08-06T09:44:16;99748.31;;;22.77;100.00
8160;BME280;27404;52.398;9.646;2023-08-06T09:46:52;99744.97;;;22.84;100.00
8160;BME280;27404;52.398;9.646;2023-08-06T09:49:25;99742.50;;;23.04;100.00
8160;BME280;27404;52.398;9.646;2023-08-06T09:51:51;99742.56;;;22.95;100.00
8160;BME280;27404;52.398;9.646;2023-08-06T09:54:19;99740.63;;;23.29;100.00
8160;BME280;27404;52.398;9.646;2023-08-06T09:56:44;99744.25;;;23.42;100.00
8160;BME280;27404;52.398;9.646;2023-08-06T09:59:10;99737.41;;;23.40;100.00
8160;BME280;27404;52.398;9.646;2023-08-06T10:01:38;99734.72;;;23.43;100.00
8160;BME280;27404;52.398;9.646;2023-08-06T10:04:05;99731.63;;;23.70;100.00
8160;BME280;27404;52.398;9.646;2023-08-06T10:06:34;99728.13;;;23.60;100.00
8160;BME280;27404;52.398;9.646;2023-08-06T10:09:01;99733.41;;;23.74;100.00
8160;BME280;27404;52.398;9.646;2023-08-06T10:11:28;99726.19;;;24.23;97.67
8160;BME280;27404;52.398;9.646;2023-08-06T10:13:58;99726.34;;;24.55;96.00
8160;BME280;27404;52.398;9.646;2023-08-06T10:16:26;99714.66;;;24.24;100.00
8160;BME280;27404;52.398;9.646;2023-08-06T10:18:53;99723.41;;;23.73;98.76
8160;BME280;27404;52.398;9.646;2023-08-06T10:21:19;99728.78;;;23.32;99.72
8160;BME280;27404;52.398;9.646;2023-08-06T10:23:54;99725.38;;;23.73;100.00
8160;BME280;27404;52.398;9.646;2023-08-06T10:26:20;99721.06;;;23.63;100.00
8160;BME280;27404;52.398;9.646;2023-08-06T10:28:45;99720.59;;;23.73;98.24
8160;BME280;27404;52.398;9.646;2023-08-06T10:31:11;99721.72;;;23.47;98.47
8160;BME280;27404;52.398;9.646;2023-08-06T10:33:44;99705.94;;;23.51;97.77
8160;BME280;27404;52.398;9.646;2023-08-06T10:36:10;99715.34;;;23.72;96.30
8160;BME280;27404;52.398;9.646;2023-08-06T10:38:49;99710.13;;;23.58;100.00
8160;BME280;27404;52.398;9.646;2023-08-06T10:41:28;99711.41;;;23.73;100.00
8160;BME280;27404;52.398;9.646;2023-08-06T10:44:08;99707.56;;;23.52;94.23
8160;BME280;27404;52.398;9.646;2023-08-06T10:46:35;99703.84;;;23.15;100.00
8160;BME280;27404;52.398;9.646;2023-08-06T10:49:01;99703.66;;;22.44;100.00
8160;BME280;27404;52.398;9.646;2023-08-06T10:51:27;99702.31;;;22.20;100.00
8160;BME280;27404;52.398;9.646;2023-08-06T10:53:52;99700.44;;;22.54;100.00
8160;BME280;27404;52.398;9.646;2023-08-06T10:56:19;99698.28;;;22.39;98.35
8160;BME280;27404;52.398;9.646;2023-08-06T10:58:48;99692.34;;;22.49;96.96
8160;BME280;27404;52.398;9.646;2023-08-06T11:01:13;99692.03;;;22.63;96.75
8160;BME280;27404;52.398;9.646;2023-08-06T11:03:43;99687.84;;;22.06;99.21
8160;BME280;27404;52.398;9.646;2023-08-06T11:06:09;99678.34;;;21.77;100.00
8160;BME280;27404;52.398;9.646;2023-08-06T11:08:40;99681.75;;;21.82;100.00
8160;BME280;27404;52.398;9.646;2023-08-06T11:11:13;99684.75;;;21.59;100.00
8160;BME280;27404;52.398;9.646;2023-08-06T11:13:43;99680.25;;;21.46;100.00
8160;BME280;27404;52.398;9.646;2023-08-06T11:16:11;99669.41;;;21.53;100.00
8160;BME280;27404;52.398;9.646;2023-08-06T11:18:37;99672.50;;;21.60;100.00
8160;BME280;27404;52.398;9.646;2023-08-06T11:21:03;99672.06;;;21.50;100.00
8160;BME280;27404;52.398;9.646;2023-08-06T11:23:29;99674.31;;;21.56;100.00
8160;BME280;27404;52.398;9.646;2023-08-06T11:25:56;99669.09;;;21.94;100.00
8160;BME280;27404;52.398;9.646;2023-08-06T11:28:21;99673.47;;;21.73;100.00
8160;BME280;27404;52.398;9.646;2023-08-06T11:30:48;99662.47;;;22.07;99.17
8160;BME280;27404;52.398;9.646;2023-08-06T11:33:14;99665.41;;;22.53;99.89
8160;BME280;27404;52.398;9.646;2023-08-06T11:35:40;99663.06;;;22.34;94.14
8160;BME280;27404;52.398;9.646;2023-08-06T11:38:06;99663.91;;;22.56;98.17
8160;BME280;27404;52.398;9.646;2023-08-06T11:40:32;99661.47;;;22.54;100.00
8160;BME280;27404;52.398;9.646;2023-08-06T11:42:58;99656.44;;;22.26;96.37
8160;BME280;27404;52.398;9.646;2023-08-06T11:45:24;99652.38;;;22.45;95.28
8160;BME280;27404;52.398;9.646;2023-08-06T11:47:51;99658.91;;;22.49;93.77
8160;BME280;27404;52.398;9.646;2023-08-06T11:50:25;99661.63;;;22.91;86.80
8160;BME280;27404;52.398;9.646;2023-08-06T11:52:58;99658.19;;;23.07;87.99
8160;BME280;27404;52.398;9.646;2023-08-06T11:55:25;99645.75;;;23.04;87.82
8160;BME280;27404;52.398;9.646;2023-08-06T11:57:51;99649.56;;;23.33;89.15
8160;BME280;27404;52.398;9.646;2023-08-06T12:00:16;99649.44;;;23.42;89.90
8160;BME280;27404;52.398;9.646;2023-08-06T12:02:44;99650.03;;;23.48;88.41
8160;BME280;27404;52.398;9.646;2023-08-06T12:05:17;99658.78;;;23.13;84.90
8160;BME280;27404;52.398;9.646;2023-08-06T12:07:49;99639.47;;;23.07;86.14
8160;BME280;27404;52.398;9.646;2023-08-06T12:10:16;99647.75;;;23.16;86.69
8160;BME280;27404;52.398;9.646;2023-08-06T12:12:44;99644.00;;;23.00;85.10
8160;BME280;27404;52.398;9.646;2023-08-06T12:15:10;99628.50;;;22.90;85.70
8160;BME280;27404;52.398;9.646;2023-08-06T12:17:36;99631.69;;;23.01;87.45
8160;BME280;27404;52.398;9.646;2023-08-06T12:20:03;99624.63;;;23.16;84.90
8160;BME280;27404;52.398;9.646;2023-08-06T12:22:29;99629.22;;;23.45;86.61
8160;BME280;27404;52.398;9.646;2023-08-06T12:25:00;99633.19;;;23.57;85.70
8160;BME280;27404;52.398;9.646;2023-08-06T12:27:26;99633.28;;;23.60;80.55
8160;BME280;27404;52.398;9.646;2023-08-06T12:29:51;99627.13;;;23.67;80.20
8160;BME280;27404;52.398;9.646;2023-08-06T12:32:17;99629.69;;;23.72;80.96
8160;BME280;27404;52.398;9.646;2023-08-06T12:34:43;99623.97;;;23.69;81.70
8160;BME280;27404;52.398;9.646;2023-08-06T12:37:09;99626.50;;;22.78;83.35
8160;BME280;27404;52.398;9.646;2023-08-06T12:39:35;99631.06;;;22.49;91.23
8160;BME280;27404;52.398;9.646;2023-08-06T12:42:02;99637.41;;;22.28;92.99
8160;BME280;27404;52.398;9.646;2023-08-06T12:44:28;99619.41;;;22.26;92.37
8160;BME280;27404;52.398;9.646;2023-08-06T12:46:53;99629.81;;;22.38;92.10
8160;BME280;27404;52.398;9.646;2023-08-06T12:49:19;99631.50;;;22.09;95.28
8160;BME280;27404;52.398;9.646;2023-08-06T12:51:51;99624.59;;;22.15;93.31
8160;BME280;27404;52.398;9.646;2023-08-06T12:54:17;99617.47;;;22.05;94.43
8160;BME280;27404;52.398;9.646;2023-08-06T12:56:43;99625.25;;;22.12;94.02
8160;BME280;27404;52.398;9.646;2023-08-06T12:59:09;99627.34;;;22.36;94.97
8160;BME280;27404;52.398;9.646;2023-08-06T13:01:34;99625.63;;;22.53;94.70
8160;BME280;27404;52.398;9.646;2023-08-06T13:04:00;99619.63;;;22.63;94.29
8160;BME280;27404;52.398;9.646;2023-08-06T13:06:25;99623.19;;;22.85;92.95
8160;BME280;27404;52.398;9.646;2023-08-06T13:08:51;99628.50;;;22.90;92.58
8160;BME280;27404;52.398;9.646;2023-08-06T13:11:16;99629.19;;;22.74;93.50
8160;BME280;27404;52.398;9.646;2023-08-06T13:13:42;99628.47;;;23.11;93.57